Time;durP1;ratioP1;P1;durP2;ratioP2;P2;SDS_P1;SDS_P2;PMS_P1;PMS_P2;Temp;Humidity;BMP_temperature;BMP_pressure;BME280_temperature;BME280_humidity;BME280_pressure;Samples;Min_cycle;Max_cycle;Signal;HPM_P1;HPM_P2
2022/12/10 00:01:23;;;;;;;51.07;20.60;;;-2.30;99.90;;;;;;5030084;28;20542;-63
2022/12/10 00:03:49;;;;;;;49.67;20.93;;;-2.30;99.90;;;;;;5032008;28;20044;-64
2022/12/10 00:06:17;;;;;;;46.67;20.60;;;-2.30;99.90;;;;;;5032398;28;20021;-65
2022/12/10 00:08:43;;;;;;;44.40;18.97;;;-2.30;99.90;;;;;;5028825;28;20054;-63
2022/12/10 00:11:11;;;;;;;42.33;20.37;;;-2.30;99.90;;;;;;5028013;28;20060;-62
2022/12/10 00:13:37;;;;;;;42.27;19.17;;;-2.30;99.90;;;;;;5029780;28;20474;-65
2022/12/10 00:16:05;;;;;;;44.93;20.17;;;-2.30;99.90;;;;;;5027237;28;20509;-65
2022/12/10 00:18:32;;;;;;;43.10;19.63;;;-2.30;99.90;;;;;;5012815;28;20029;-64
2022/12/10 00:20:57;;;;;;;42.23;18.23;;;-2.30;99.90;;;;;;5028192;28;20129;-64
2022/12/10 00:23:23;;;;;;;44.50;21.30;;;-2.20;99.90;;;;;;5027589;28;20465;-64
2022/12/10 00:25:48;;;;;;;42.83;20.00;;;-2.20;99.90;;;;;;5028841;28;20033;-64
2022/12/10 00:28:14;;;;;;;41.87;19.70;;;-2.20;99.90;;;;;;5030081;28;20082;-64
2022/12/10 00:30:39;;;;;;;43.93;19.13;;;-2.10;99.90;;;;;;5029246;28;20101;-65
2022/12/10 00:33:05;;;;;;;47.37;20.57;;;-2.10;99.90;;;;;;5030947;28;20623;-64
2022/12/10 00:35:31;;;;;;;41.33;19.93;;;-2.00;99.90;;;;;;5030480;28;20048;-65
2022/12/10 00:37:56;;;;;;;48.67;19.13;;;-2.00;99.90;;;;;;5033363;28;20114;-63
2022/12/10 00:40:23;;;;;;;41.90;18.30;;;-1.90;99.90;;;;;;5028227;28;20037;-64
2022/12/10 00:42:48;;;;;;;37.67;17.37;;;-1.90;99.90;;;;;;5028060;28;20044;-64
2022/12/10 00:45:14;;;;;;;43.43;19.07;;;-1.90;99.90;;;;;;5010516;28;20025;-64
2022/12/10 00:47:39;;;;;;;42.77;19.00;;;-1.90;99.90;;;;;;5012801;28;20025;-63
2022/12/10 00:50:05;;;;;;;44.27;20.53;;;-1.90;99.90;;;;;;5030170;28;20581;-63
2022/12/10 00:52:31;;;;;;;39.67;18.80;;;-1.90;99.90;;;;;;5012871;28;20040;-65
2022/12/10 00:54:57;;;;;;;51.07;19.43;;;-1.90;99.90;;;;;;5028314;28;20029;-63
2022/12/10 00:57:22;;;;;;;40.03;18.47;;;-1.80;99.90;;;;;;5029377;28;20126;-63
2022/12/10 00:59:48;;;;;;;42.63;19.07;;;-1.80;99.90;;;;;;5013097;28;20037;-62
2022/12/10 01:02:13;;;;;;;37.70;17.33;;;-1.80;99.90;;;;;;5031513;28;20386;-64
2022/12/10 01:04:39;;;;;;;37.13;17.10;;;-1.90;99.90;;;;;;5011720;28;20413;-63
2022/12/10 01:07:04;;;;;;;42.73;17.07;;;-1.90;99.90;;;;;;5030100;28;20032;-63
2022/12/10 01:09:30;;;;;;;38.87;18.07;;;-1.90;99.90;;;;;;5012384;28;20014;-62
2022/12/10 01:12:01;;;;;;;43.63;18.83;;;-1.90;99.90;;;;;;5024962;28;20562;-66
2022/12/10 01:14:29;;;;;;;41.50;17.77;;;-2.00;99.90;;;;;;5026855;28;20041;-65
2022/12/10 01:16:58;;;;;;;42.37;18.30;;;-2.00;99.90;;;;;;5031566;28;20088;-65
2022/12/10 01:19:24;;;;;;;43.43;19.00;;;-2.10;99.90;;;;;;5027580;28;20028;-65
2022/12/10 01:21:54;;;;;;;39.80;17.90;;;-2.20;99.90;;;;;;5027949;28;20069;-65
2022/12/10 01:24:21;;;;;;;36.27;16.27;;;-2.20;99.90;;;;;;5029760;28;20463;-62
2022/12/10 01:26:46;;;;;;;39.10;17.03;;;-2.30;99.90;;;;;;5029070;28;20101;-65
2022/12/10 01:29:12;;;;;;;42.40;17.97;;;-2.30;99.90;;;;;;5029804;28;20100;-65
2022/12/10 01:31:38;;;;;;;40.83;19.07;;;-2.40;99.90;;;;;;5029450;28;20037;-63
2022/12/10 01:34:06;;;;;;;42.67;17.73;;;-2.40;99.90;;;;;;5005989;28;20026;-60
2022/12/10 01:36:41;;;;;;;45.73;18.90;;;-2.40;99.90;;;;;;5027327;28;20033;-63
2022/12/10 01:39:09;;;;;;;38.27;17.03;;;-2.50;99.90;;;;;;5011334;28;20037;-64
2022/12/10 01:41:38;;;;;;;36.90;15.87;;;-2.50;99.90;;;;;;5032395;28;20056;-59
2022/12/10 01:44:09;;;;;;;44.00;19.27;;;-2.50;99.90;;;;;;5028730;28;20036;-63
2022/12/10 01:46:35;;;;;;;43.77;18.13;;;-2.40;99.90;;;;;;5026149;28;20034;-65
2022/12/10 01:49:04;;;;;;;48.07;20.07;;;-2.50;99.90;;;;;;5014640;28;20030;-65
2022/12/10 01:51:33;;;;;;;42.23;18.63;;;-2.50;99.90;;;;;;5029257;28;20033;-64
2022/12/10 01:54:00;;;;;;;47.90;19.27;;;-2.60;99.90;;;;;;5029712;28;20496;-66
2022/12/10 01:56:25;;;;;;;46.23;19.20;;;-2.60;99.90;;;;;;5031440;28;20064;-65
2022/12/10 01:58:54;;;;;;;46.83;18.73;;;-2.60;99.90;;;;;;5026285;28;20037;-66
2022/12/10 02:01:28;;;;;;;38.33;16.63;;;-2.70;99.90;;;;;;5010815;28;20112;-65
2022/12/10 02:04:14;;;;;;;41.70;16.60;;;-2.70;99.90;;;;;;5030102;28;20475;-64
2022/12/10 02:06:45;;;;;;;37.37;17.63;;;-2.70;99.90;;;;;;5011926;28;20026;-65
2022/12/10 02:09:46;;;;;;;39.70;18.30;;;-2.70;99.90;;;;;;5031239;28;20033;-65
2022/12/10 02:12:20;;;;;;;38.53;16.73;;;-2.80;99.90;;;;;;5013514;28;20559;-66
2022/12/10 02:14:58;;;;;;;39.10;16.43;;;-2.80;99.90;;;;;;5013210;28;20060;-66
2022/12/10 02:17:32;;;;;;;39.07;17.47;;;-2.80;99.90;;;;;;5028810;28;20487;-65
2022/12/10 02:20:14;;;;;;;40.77;16.87;;;-2.80;99.90;;;;;;5029093;28;20103;-64
2022/12/10 02:23:04;;;;;;;46.13;18.90;;;-2.80;99.90;;;;;;5029388;28;20314;-63
2022/12/10 02:25:37;;;;;;;37.60;16.70;;;-2.80;99.90;;;;;;5020441;28;20037;-65
2022/12/10 02:28:18;;;;;;;39.53;16.47;;;-2.80;99.90;;;;;;5029436;28;20037;-65
2022/12/10 02:30:44;;;;;;;39.43;17.00;;;-2.80;99.90;;;;;;5018243;28;20115;-64
2022/12/10 02:33:11;;;;;;;40.13;16.73;;;-2.80;99.90;;;;;;5028037;28;22075;-65
2022/12/10 02:35:38;;;;;;;39.30;17.57;;;-2.80;99.90;;;;;;5028008;28;20037;-62
2022/12/10 02:38:12;;;;;;;42.00;18.73;;;-2.80;99.90;;;;;;5029197;28;20529;-64
2022/12/10 02:40:41;;;;;;;39.38;16.92;;;-2.90;99.90;;;;;;5028792;28;20035;-65
2022/12/10 02:43:08;;;;;;;40.47;17.80;;;-2.80;99.90;;;;;;5024548;28;20072;-65
2022/12/10 02:45:35;;;;;;;41.93;17.30;;;-2.80;99.90;;;;;;5025014;28;20018;-66
2022/12/10 02:48:03;;;;;;;40.40;18.13;;;-2.80;99.90;;;;;;5027496;28;20391;-65
2022/12/10 02:50:28;;;;;;;39.13;18.57;;;-2.80;99.90;;;;;;5024059;28;20028;-64
2022/12/10 02:52:54;;;;;;;39.37;17.73;;;-2.70;99.90;;;;;;5026853;28;20026;-64
2022/12/10 02:55:20;;;;;;;39.47;16.67;;;-2.70;99.90;;;;;;5020624;28;20021;-65
2022/12/10 02:57:59;;;;;;;41.00;16.10;;;-2.70;99.90;;;;;;5026671;28;20491;-64
2022/12/10 03:00:25;;;;;;;39.43;15.30;;;-2.70;99.90;;;;;;5028627;28;20025;-65
2022/12/10 03:03:22;;;;;;;39.30;16.63;;;-2.60;99.90;;;;;;5022816;28;20040;-65
2022/12/10 03:06:18;;;;;;;34.83;15.27;;;-2.60;99.90;;;;;;5000606;28;20613;-65
2022/12/10 03:08:51;;;;;;;36.97;16.07;;;-2.60;99.90;;;;;;4989178;28;20038;-64
2022/12/10 03:11:21;;;;;;;42.42;16.40;;;-2.60;99.90;;;;;;5010890;28;20033;-64
2022/12/10 03:14:10;;;;;;;38.67;15.80;;;-2.60;99.90;;;;;;5030265;28;20056;-64
2022/12/10 03:16:41;;;;;;;38.43;15.40;;;-2.60;99.90;;;;;;5004251;28;20045;-67
2022/12/10 03:19:11;;;;;;;39.37;17.47;;;-2.60;99.90;;;;;;5004870;28;21000;-65
2022/12/10 03:21:39;;;;;;;37.10;16.73;;;-2.50;99.90;;;;;;5008148;28;20076;-62
2022/12/10 03:24:06;;;;;;;34.87;15.33;;;-2.50;99.90;;;;;;5024820;28;20067;-63
2022/12/10 03:26:33;;;;;;;35.00;15.90;;;-2.50;99.90;;;;;;5024604;28;20083;-65
2022/12/10 03:29:07;;;;;;;39.40;15.93;;;-2.40;99.90;;;;;;5029398;28;20494;-64
2022/12/10 03:31:34;;;;;;;42.40;17.37;;;-2.40;99.90;;;;;;5020728;28;20034;-65
2022/12/10 03:34:02;;;;;;;36.73;16.43;;;-2.40;99.90;;;;;;5031389;28;20376;-66
2022/12/10 03:36:30;;;;;;;36.23;16.27;;;-2.40;99.90;;;;;;5030941;28;20041;-63
2022/12/10 03:38:56;;;;;;;37.57;15.37;;;-2.40;99.90;;;;;;5029817;28;20030;-65
2022/12/10 03:41:22;;;;;;;39.17;15.43;;;-2.40;99.90;;;;;;5031785;28;20443;-65
2022/12/10 03:43:52;;;;;;;40.77;16.07;;;-2.40;99.90;;;;;;5030780;28;20036;-65
2022/12/10 03:46:18;;;;;;;38.70;15.00;;;-2.40;99.90;;;;;;5029946;28;20045;-66
2022/12/10 03:48:43;;;;;;;33.07;14.80;;;-2.40;99.90;;;;;;5031059;28;20018;-65
2022/12/10 03:51:09;;;;;;;35.53;15.20;;;-2.30;99.90;;;;;;5031545;28;20029;-65
2022/12/10 03:53:34;;;;;;;31.20;15.00;;;-2.30;99.90;;;;;;5030752;28;20057;-64
2022/12/10 03:56:00;;;;;;;35.60;15.47;;;-2.30;99.90;;;;;;5032582;28;20510;-65
2022/12/10 03:58:25;;;;;;;31.90;14.80;;;-2.30;99.90;;;;;;5034406;28;20029;-66
2022/12/10 04:00:51;;;;;;;34.17;15.07;;;-2.40;99.90;;;;;;5029777;28;20068;-65
2022/12/10 04:03:17;;;;;;;37.20;16.20;;;-2.40;99.90;;;;;;5029046;28;20034;-65
2022/12/10 04:05:42;;;;;;;36.23;15.17;;;-2.40;99.90;;;;;;5031822;28;20116;-66
2022/12/10 04:08:08;;;;;;;33.37;14.13;;;-2.40;99.90;;;;;;5031521;28;20120;-66
2022/12/10 04:10:37;;;;;;;34.10;14.87;;;-2.40;99.90;;;;;;5030571;28;20032;-64
2022/12/10 04:18:32;;;;;;;38.65;15.75;;;-2.40;99.90;;;;;;5030065;28;20144;-65
2022/12/10 04:29:10;;;;;;;36.63;16.42;;;-2.30;99.90;;;;;;5027600;28;20060;-64
2022/12/10 04:31:36;;;;;;;35.43;14.47;;;-2.30;99.90;;;;;;5031144;28;20025;-67
2022/12/10 04:34:01;;;;;;;34.67;15.13;;;-2.20;99.90;;;;;;5029722;28;20514;-65
2022/12/10 04:36:27;;;;;;;40.70;16.03;;;-2.20;99.90;;;;;;5024036;28;20037;-65
2022/12/10 04:38:52;;;;;;;32.90;15.47;;;-2.20;99.90;;;;;;5030189;28;20083;-65
2022/12/10 04:41:18;;;;;;;37.77;15.33;;;-2.20;99.90;;;;;;5030998;28;20029;-64
2022/12/10 04:43:44;;;;;;;36.23;15.40;;;-2.20;99.90;;;;;;5010214;28;20071;-65
2022/12/10 04:46:10;;;;;;;38.80;16.03;;;-2.10;99.90;;;;;;5014342;28;20411;-64
2022/12/10 04:48:36;;;;;;;38.57;15.80;;;-2.10;99.90;;;;;;5031244;28;20036;-66
2022/12/10 04:51:02;;;;;;;39.90;17.60;;;-2.10;99.90;;;;;;5024206;28;20403;-64
2022/12/10 04:53:27;;;;;;;37.17;14.60;;;-2.00;99.90;;;;;;5026685;28;20030;-66
2022/12/10 04:55:53;;;;;;;37.17;17.57;;;-2.00;99.90;;;;;;5028862;28;20041;-64
2022/12/10 04:58:19;;;;;;;38.00;15.57;;;-1.90;99.90;;;;;;5028225;28;20453;-64
2022/12/10 05:00:44;;;;;;;42.10;17.43;;;-1.90;99.90;;;;;;5027393;28;20033;-66
2022/12/10 05:03:10;;;;;;;36.60;15.60;;;-2.00;99.90;;;;;;5028637;28;20441;-66
2022/12/10 05:05:35;;;;;;;36.97;16.50;;;-1.90;99.90;;;;;;5029209;28;20038;-65
2022/12/10 05:08:02;;;;;;;36.07;15.83;;;-1.90;99.90;;;;;;5029954;28;20117;-65
2022/12/10 05:10:27;;;;;;;41.27;16.77;;;-1.90;99.90;;;;;;5023240;28;20076;-65
2022/12/10 05:12:53;;;;;;;38.90;16.73;;;-1.90;99.90;;;;;;5028359;28;20033;-64
2022/12/10 05:15:19;;;;;;;35.57;16.67;;;-1.80;99.90;;;;;;5029270;28;20041;-65
2022/12/10 05:17:44;;;;;;;41.93;15.67;;;-1.90;99.90;;;;;;5019576;28;20105;-66
2022/12/10 05:20:10;;;;;;;37.20;16.80;;;-1.90;99.90;;;;;;5026623;28;20021;-65
2022/12/10 05:25:20;;;;;;;;;;;-1.90;99.90;;;;;;5030239;28;20103;-65
2022/12/10 05:27:46;;;;;;;39.77;15.60;;;-1.90;99.90;;;;;;5029207;28;19913;-66
2022/12/10 05:30:12;;;;;;;32.30;14.83;;;-1.90;99.90;;;;;;5030255;28;20021;-67
2022/12/10 05:32:38;;;;;;;37.27;16.10;;;-2.00;99.90;;;;;;5027346;28;20033;-66
2022/12/10 05:35:04;;;;;;;43.37;17.37;;;-2.00;99.90;;;;;;5029643;28;20083;-64
2022/12/10 05:37:30;;;;;;;39.20;15.53;;;-2.00;99.90;;;;;;5056920;23;20067;-67
2022/12/10 05:39:55;;;;;;;36.27;18.07;;;-2.00;99.90;;;;;;5039196;28;20657;-66
2022/12/10 05:42:21;;;;;;;39.60;16.83;;;-2.00;99.90;;;;;;5044810;28;20060;-66
2022/12/10 05:44:46;;;;;;;33.33;14.70;;;-1.90;99.90;;;;;;5047741;28;20040;-66
2022/12/10 05:47:12;;;;;;;34.73;15.63;;;-2.00;99.90;;;;;;5041143;28;20109;-66
2022/12/10 05:49:37;;;;;;;34.90;15.33;;;-2.00;99.90;;;;;;5048227;28;20398;-63
2022/12/10 05:52:03;;;;;;;36.23;15.40;;;-2.00;99.90;;;;;;5047170;28;20064;-66
2022/12/10 05:54:29;;;;;;;34.47;14.17;;;-1.90;99.90;;;;;;5047411;28;20116;-68
2022/12/10 05:56:54;;;;;;;31.67;15.43;;;-1.90;99.90;;;;;;5047308;28;20548;-65
2022/12/10 05:59:20;;;;;;;38.27;15.27;;;-1.90;99.90;;;;;;5049095;28;20032;-66
2022/12/10 06:01:46;;;;;;;29.57;13.53;;;-1.90;99.90;;;;;;5047940;28;20489;-68
2022/12/10 06:04:12;;;;;;;37.33;15.30;;;-1.90;99.90;;;;;;5029657;28;20116;-67
2022/12/10 06:06:39;;;;;;;36.20;14.60;;;-1.90;99.90;;;;;;5035079;28;20160;-66
2022/12/10 06:09:06;;;;;;;40.73;16.77;;;-1.90;99.90;;;;;;5042111;28;20029;-65
2022/12/10 06:11:32;;;;;;;38.57;16.87;;;-1.90;99.90;;;;;;5045984;28;20041;-67
2022/12/10 06:13:59;;;;;;;38.63;16.57;;;-1.80;99.90;;;;;;5043638;28;20064;-67
2022/12/10 06:16:26;;;;;;;27.03;13.47;;;-1.90;99.90;;;;;;5047788;28;20063;-66
2022/12/10 06:18:52;;;;;;;45.10;16.80;;;-1.90;99.90;;;;;;5046295;28;20545;-67
2022/12/10 06:21:19;;;;;;;37.63;15.30;;;-1.90;99.90;;;;;;5035401;28;20120;-66
2022/12/10 06:23:45;;;;;;;38.10;14.57;;;-1.90;99.90;;;;;;5042401;28;20025;-66
2022/12/10 06:26:13;;;;;;;39.53;15.13;;;-1.80;99.90;;;;;;5048657;28;20021;-67
2022/12/10 06:28:39;;;;;;;30.57;14.07;;;-1.80;99.90;;;;;;5043183;28;20527;-66
2022/12/10 06:31:05;;;;;;;33.20;15.70;;;-1.80;99.90;;;;;;5048690;28;20104;-67
2022/12/10 06:33:31;;;;;;;34.93;14.43;;;-1.80;99.90;;;;;;5049172;28;20036;-67
2022/12/10 06:35:57;;;;;;;36.37;16.57;;;-1.70;99.90;;;;;;5041138;28;20036;-67
2022/12/10 06:38:22;;;;;;;34.87;15.00;;;-1.70;99.90;;;;;;5049032;28;20029;-63
2022/12/10 06:40:49;;;;;;;32.33;13.23;;;-1.70;99.90;;;;;;5046771;28;20398;-67
2022/12/10 06:43:15;;;;;;;33.13;14.57;;;-1.70;99.90;;;;;;5046809;28;20251;-66
2022/12/10 06:45:41;;;;;;;34.17;14.13;;;-1.70;99.90;;;;;;5044599;28;20100;-64
2022/12/10 06:48:07;;;;;;;33.97;15.47;;;-1.70;99.90;;;;;;5047578;28;20021;-66
2022/12/10 06:50:34;;;;;;;35.00;15.20;;;-1.70;99.90;;;;;;5044279;28;20055;-67
2022/12/10 06:52:59;;;;;;;32.63;14.17;;;-1.60;99.90;;;;;;5046435;28;20100;-66
2022/12/10 06:55:25;;;;;;;31.77;14.83;;;-1.70;99.90;;;;;;5045605;28;20108;-67
2022/12/10 06:57:52;;;;;;;34.33;15.47;;;-1.70;99.90;;;;;;5047588;28;20116;-66
2022/12/10 07:00:18;;;;;;;36.73;15.03;;;-1.70;99.90;;;;;;5043224;28;20403;-66
2022/12/10 07:02:43;;;;;;;36.17;17.23;;;-1.60;99.90;;;;;;5041253;28;20033;-67
2022/12/10 07:05:09;;;;;;;39.97;16.23;;;-1.60;99.90;;;;;;5037257;28;20505;-67
2022/12/10 07:07:35;;;;;;;38.97;16.17;;;-1.60;99.90;;;;;;5048482;28;20025;-66
2022/12/10 07:10:01;;;;;;;32.53;15.10;;;-1.60;99.90;;;;;;5050971;28;20025;-68
2022/12/10 07:12:26;;;;;;;38.00;14.03;;;-1.60;99.90;;;;;;5050560;28;20033;-67
2022/12/10 07:14:52;;;;;;;33.63;15.43;;;-1.60;99.90;;;;;;5032868;28;20048;-67
2022/12/10 07:17:18;;;;;;;33.37;15.40;;;-1.60;99.90;;;;;;5050876;28;20029;-65
2022/12/10 07:19:44;;;;;;;40.03;17.97;;;-1.60;99.90;;;;;;5049672;28;20033;-66
2022/12/10 07:22:09;;;;;;;45.60;17.23;;;-1.50;99.90;;;;;;5050187;28;20104;-68
2022/12/10 07:24:35;;;;;;;39.17;17.53;;;-1.50;99.90;;;;;;5049317;28;20096;-65
2022/12/10 07:27:04;;;;;;;36.53;15.37;;;-1.50;99.90;;;;;;5046997;28;20028;-67
2022/12/10 07:29:29;;;;;;;41.40;16.20;;;-1.40;99.90;;;;;;5050832;28;20020;-67
2022/12/10 07:31:55;;;;;;;36.63;16.37;;;-1.40;99.90;;;;;;5049412;28;20035;-66
2022/12/10 07:34:20;;;;;;;32.17;15.13;;;-1.30;99.90;;;;;;5049285;28;20043;-67
2022/12/10 07:36:46;;;;;;;34.67;16.83;;;-1.30;99.90;;;;;;5048149;28;20040;-66
2022/12/10 07:39:17;;;;;;;38.07;16.40;;;-1.30;99.90;;;;;;5050135;28;20033;-67
2022/12/10 07:41:44;;;;;;;39.47;18.83;;;-1.30;99.90;;;;;;5044638;28;20096;-66
2022/12/10 07:44:12;;;;;;;37.70;16.77;;;-1.30;99.90;;;;;;5047193;28;20052;-66
2022/12/10 07:46:38;;;;;;;41.10;15.73;;;-1.30;99.90;;;;;;5050054;28;20029;-67
2022/12/10 07:49:03;;;;;;;41.63;19.93;;;-1.30;99.90;;;;;;5051396;28;20664;-67
2022/12/10 07:51:30;;;;;;;36.93;16.63;;;-1.30;99.90;;;;;;5048787;28;20021;-65
2022/12/10 07:53:55;;;;;;;39.10;16.77;;;-1.30;99.90;;;;;;5050100;28;20036;-67
2022/12/10 07:56:22;;;;;;;39.57;16.77;;;-1.30;99.90;;;;;;5049192;28;20441;-67
2022/12/10 07:58:49;;;;;;;42.90;17.80;;;-1.30;99.90;;;;;;5047407;28;20653;-67
2022/12/10 08:01:17;;;;;;;36.57;17.00;;;-1.30;99.90;;;;;;5029843;28;20124;-67
2022/12/10 08:03:43;;;;;;;35.00;15.93;;;-1.20;99.90;;;;;;5050080;28;20071;-66
2022/12/10 08:06:20;;;;;;;48.40;18.27;;;-1.30;99.90;;;;;;5050132;28;20029;-67
2022/12/10 08:08:46;;;;;;;40.65;18.08;;;-1.20;99.90;;;;;;5047064;28;20017;-67
2022/12/10 08:11:13;;;;;;;35.40;14.77;;;-1.20;99.90;;;;;;5044024;28;20029;-67
2022/12/10 08:13:39;;;;;;;40.77;17.57;;;-1.10;99.90;;;;;;5049485;28;20037;-66
2022/12/10 08:16:07;;;;;;;33.55;13.52;;;-1.10;99.90;;;;;;5053386;28;20048;-67
2022/12/10 08:18:34;;;;;;;39.33;15.80;;;-1.10;99.90;;;;;;5049525;28;20033;-68
2022/12/10 08:21:04;;;;;;;40.37;16.33;;;-1.00;99.90;;;;;;5051772;28;20112;-68
2022/12/10 08:23:30;;;;;;;36.80;16.65;;;-0.90;99.90;;;;;;5050684;28;20400;-67
2022/12/10 08:25:55;;;;;;;34.47;16.50;;;-1.00;99.90;;;;;;5053668;28;20029;-67
2022/12/10 08:28:21;;;;;;;42.65;16.67;;;-0.90;99.90;;;;;;5049205;28;20026;-66
2022/12/10 08:30:48;;;;;;;33.25;15.02;;;-0.80;99.90;;;;;;5050146;28;20100;-67
2022/12/10 08:33:13;;;;;;;33.38;15.80;;;-0.70;99.90;;;;;;5050347;28;20025;-67
2022/12/10 08:35:39;;;;;;;36.80;15.73;;;-0.70;99.90;;;;;;5054735;28;20155;-65
2022/12/10 08:38:05;;;;;;;47.30;19.67;;;-0.60;99.90;;;;;;5048479;28;20051;-66
2022/12/10 08:40:31;;;;;;;67.43;23.50;;;-0.60;99.90;;;;;;5049719;28;20091;-66
2022/12/10 08:42:56;;;;;;;97.85;32.20;;;-0.70;99.90;;;;;;5050934;28;20028;-66
2022/12/10 08:45:22;;;;;;;53.88;21.58;;;-0.70;99.90;;;;;;5051449;28;20482;-67
2022/12/10 08:47:47;;;;;;;40.95;18.00;;;-0.70;99.90;;;;;;5050275;28;20025;-66
2022/12/10 08:50:13;;;;;;;42.20;18.25;;;-0.60;99.90;;;;;;5052410;28;20032;-67
2022/12/10 08:52:39;;;;;;;37.10;16.83;;;-0.60;99.90;;;;;;5050508;28;20586;-67
2022/12/10 08:55:05;;;;;;;31.70;15.15;;;-0.40;99.90;;;;;;5050322;28;20029;-67
2022/12/10 08:57:30;;;;;;;38.00;16.13;;;-0.40;99.90;;;;;;5047579;28;20036;-67
2022/12/10 08:59:56;;;;;;;33.22;15.05;;;-0.40;99.90;;;;;;5051980;28;20043;-66
2022/12/10 09:02:21;;;;;;;42.88;16.90;;;-0.30;99.90;;;;;;5017283;28;20414;-66
2022/12/10 09:04:49;;;;;;;36.15;15.07;;;-0.20;99.90;;;;;;5029482;28;20018;-67
2022/12/10 09:07:15;;;;;;;36.33;15.52;;;-0.20;99.90;;;;;;5031344;28;20025;-67
2022/12/10 09:09:40;;;;;;;31.73;14.18;;;-0.20;99.90;;;;;;5028725;28;20360;-65
2022/12/10 09:12:06;;;;;;;38.53;16.15;;;-0.20;99.90;;;;;;5030190;28;20566;-67
2022/12/10 09:14:32;;;;;;;34.88;15.38;;;-0.30;99.90;;;;;;5030089;28;20394;-67
2022/12/10 09:16:57;;;;;;;37.75;15.35;;;-0.40;99.90;;;;;;5029095;28;20506;-66
2022/12/10 09:19:23;;;;;;;40.35;15.68;;;-0.30;99.90;;;;;;5028995;28;20029;-66
2022/12/10 09:21:49;;;;;;;36.20;15.68;;;-0.20;99.90;;;;;;5024897;28;20045;-67
2022/12/10 09:24:14;;;;;;;33.90;15.68;;;-0.20;99.90;;;;;;5028940;28;20266;-67
2022/12/10 09:26:40;;;;;;;41.30;18.48;;;-0.10;99.90;;;;;;5011407;28;20620;-67
2022/12/10 09:29:05;;;;;;;39.55;17.05;;;0.00;99.90;;;;;;5028716;28;20028;-67
2022/12/10 09:31:31;;;;;;;35.35;17.17;;;0.00;99.90;;;;;;5026121;28;20121;-66
2022/12/10 09:33:57;;;;;;;39.90;16.45;;;0.10;99.90;;;;;;5028738;28;20037;-67
2022/12/10 09:36:22;;;;;;;37.40;16.65;;;0.00;99.90;;;;;;5025941;28;20399;-67
2022/12/10 09:38:49;;;;;;;34.17;17.05;;;0.00;99.90;;;;;;5030204;28;20535;-67
2022/12/10 09:41:20;;;;;;;37.80;16.00;;;0.10;99.90;;;;;;5027638;28;20495;-67
2022/12/10 09:44:04;;;;;;;36.40;16.40;;;0.10;99.90;;;;;;5028633;28;20026;-66
2022/12/10 09:46:50;;;;;;;32.38;14.60;;;0.20;99.90;;;;;;5024325;28;20071;-67
2022/12/10 09:49:37;;;;;;;34.75;16.50;;;0.30;99.90;;;;;;5024743;28;20546;-66
2022/12/10 09:52:09;;;;;;;31.77;16.02;;;0.20;99.90;;;;;;5014086;28;20037;-67
2022/12/10 09:54:46;;;;;;;37.95;17.10;;;0.20;99.90;;;;;;5029110;28;20036;-67
2022/12/10 09:57:27;;;;;;;39.92;19.23;;;0.20;99.90;;;;;;5029072;28;20044;-67
2022/12/10 09:59:55;;;;;;;41.97;17.95;;;0.20;99.90;;;;;;5022142;28;20026;-67
2022/12/10 10:02:26;;;;;;;38.88;19.15;;;0.20;99.90;;;;;;5027755;28;20060;-66
2022/12/10 10:05:09;;;;;;;37.42;15.90;;;0.30;99.90;;;;;;5012383;28;20052;-67
2022/12/10 10:07:41;;;;;;;32.50;15.87;;;0.30;99.90;;;;;;5021511;28;20355;-66
2022/12/10 10:10:21;;;;;;;33.65;14.65;;;0.30;99.90;;;;;;5021264;28;20030;-67
2022/12/10 10:12:47;;;;;;;42.05;16.92;;;0.30;99.90;;;;;;5026442;28;20495;-67
2022/12/10 10:15:21;;;;;;;34.75;15.45;;;0.30;99.90;;;;;;5024592;28;20029;-66
2022/12/10 10:17:49;;;;;;;35.35;16.33;;;0.30;99.90;;;;;;5025978;28;20056;-66
2022/12/10 10:20:15;;;;;;;34.95;16.08;;;0.30;99.90;;;;;;5029229;28;20118;-67
2022/12/10 10:22:41;;;;;;;28.05;14.55;;;0.50;99.90;;;;;;5022808;28;20109;-65
2022/12/10 10:25:14;;;;;;;34.97;15.95;;;0.40;99.90;;;;;;5029375;28;20033;-67
2022/12/10 10:27:40;;;;;;;34.63;15.13;;;0.40;99.90;;;;;;5026889;28;20071;-66
2022/12/10 10:30:13;;;;;;;28.55;14.07;;;0.40;99.90;;;;;;5029005;28;20041;-68
2022/12/10 10:32:38;;;;;;;34.15;15.55;;;0.40;99.90;;;;;;5020179;28;20040;-67
2022/12/10 10:35:05;;;;;;;40.95;17.58;;;0.30;99.90;;;;;;5026483;28;20037;-67
2022/12/10 10:37:42;;;;;;;35.08;15.90;;;0.40;99.90;;;;;;5027488;28;20069;-67
2022/12/10 10:40:23;;;;;;;37.83;16.98;;;0.50;99.90;;;;;;5025489;28;20033;-67
2022/12/10 10:42:52;;;;;;;34.55;14.88;;;0.50;99.90;;;;;;5023430;28;20041;-66
2022/12/10 10:45:38;;;;;;;35.17;14.35;;;0.40;99.90;;;;;;5026267;28;20036;-66
2022/12/10 10:48:12;;;;;;;30.17;13.13;;;0.50;99.90;;;;;;5007732;28;20414;-66
2022/12/10 10:50:44;;;;;;;26.25;11.93;;;0.60;99.90;;;;;;5028861;28;20026;-67
2022/12/10 10:53:23;;;;;;;26.23;12.00;;;0.70;99.90;;;;;;5026437;28;20124;-67
2022/12/10 10:55:49;;;;;;;26.80;12.85;;;0.80;99.90;;;;;;5028165;28;20042;-67
2022/12/10 10:58:21;;;;;;;27.75;12.68;;;0.80;99.90;;;;;;5027985;28;20045;-67
2022/12/10 11:01:06;;;;;;;29.83;12.07;;;0.90;99.90;;;;;;5026784;28;20171;-68
2022/12/10 11:03:35;;;;;;;28.42;13.07;;;0.80;99.90;;;;;;5023771;28;20391;-66
2022/12/10 11:06:04;;;;;;;27.02;12.00;;;0.70;99.90;;;;;;5027901;28;20030;-67
2022/12/10 11:08:31;;;;;;;28.92;13.52;;;0.70;99.90;;;;;;5026822;28;20105;-67
2022/12/10 11:11:31;;;;;;;25.55;12.13;;;0.80;99.90;;;;;;5024702;28;20029;-67
2022/12/10 11:14:15;;;;;;;25.15;13.18;;;0.70;99.90;;;;;;5007259;28;20044;-67
2022/12/10 11:16:40;;;;;;;28.65;11.85;;;0.80;99.90;;;;;;5025043;28;20404;-67
2022/12/10 11:19:22;;;;;;;20.80;10.13;;;0.90;99.90;;;;;;5028679;28;20025;-67
2022/12/10 11:21:49;;;;;;;24.77;11.45;;;0.80;99.90;;;;;;5023358;28;20025;-66
2022/12/10 11:24:18;;;;;;;24.23;11.68;;;0.80;99.90;;;;;;5022518;28;20495;-66
2022/12/10 11:26:55;;;;;;;31.45;12.18;;;0.70;99.90;;;;;;5019168;28;20032;-66
2022/12/10 11:29:41;;;;;;;25.35;11.93;;;0.70;99.90;;;;;;5017738;28;20818;-67
2022/12/10 11:32:23;;;;;;;29.10;12.90;;;0.70;99.90;;;;;;5016455;28;20044;-67
2022/12/10 11:35:10;;;;;;;21.77;11.27;;;0.80;99.90;;;;;;5027670;28;20034;-67
2022/12/10 11:37:54;;;;;;;29.63;11.60;;;0.70;99.90;;;;;;5023804;28;20030;-67
2022/12/10 11:40:35;;;;;;;29.80;11.48;;;0.70;99.90;;;;;;5026112;28;20120;-66
2022/12/10 11:43:34;;;;;;;26.02;12.73;;;0.70;99.90;;;;;;5023888;28;20080;-69
2022/12/10 11:46:32;;;;;;;29.25;11.38;;;0.80;99.90;;;;;;5043172;28;20025;-66
2022/12/10 11:49:00;;;;;;;24.20;12.57;;;0.80;99.90;;;;;;5044245;28;20040;-66
2022/12/10 11:51:35;;;;;;;31.88;13.63;;;0.80;99.90;;;;;;5041396;28;20095;-67
2022/12/10 11:54:12;;;;;;;23.50;11.77;;;0.80;99.90;;;;;;5044169;28;20036;-66
2022/12/10 11:56:43;;;;;;;22.85;10.70;;;0.80;99.90;;;;;;5051759;28;20024;-67
2022/12/10 11:59:16;;;;;;;24.55;11.48;;;0.80;99.90;;;;;;5049623;28;20040;-67
2022/12/10 12:02:19;;;;;;;25.98;11.02;;;0.90;99.90;;;;;;5051047;28;20024;-63
2022/12/10 12:05:38;;;;;;;22.98;10.50;;;0.80;99.90;;;;;;5049621;28;20021;-67
2022/12/10 12:08:28;;;;;;;27.70;11.63;;;0.90;99.90;;;;;;4942341;28;20027;-66
2022/12/10 12:11:30;;;;;;;25.58;11.73;;;0.90;99.90;;;;;;5045498;28;20056;-66
2022/12/10 12:14:04;;;;;;;41.10;15.80;;;0.80;99.90;;;;;;5049901;28;20029;-66
2022/12/10 12:17:20;;;;;;;28.80;12.60;;;0.70;99.90;;;;;;5034619;28;20040;-67
2022/12/10 12:19:56;;;;;;;23.52;10.68;;;0.80;99.90;;;;;;4949352;28;20038;-67
2022/12/10 12:22:29;;;;;;;24.33;11.50;;;0.80;99.90;;;;;;4949289;28;20068;-67
2022/12/10 12:25:01;;;;;;;40.17;15.45;;;0.80;99.90;;;;;;5007219;28;20041;-66
2022/12/10 12:27:36;;;;;;;25.80;12.85;;;0.80;99.90;;;;;;5043772;28;20080;-66
2022/12/10 12:30:04;;;;;;;;;;;0.90;99.90;;;;;;5039038;28;20052;-66
2022/12/10 12:32:32;;;;;;;24.75;11.80;;;0.90;99.90;;;;;;5045762;28;19913;-67
2022/12/10 12:35:15;;;;;;;26.08;11.52;;;1.10;99.90;;;;;;5043524;28;20550;-66
2022/12/10 12:38:10;;;;;;;26.17;11.55;;;1.30;99.90;;;;;;5046546;28;20108;-65
2022/12/10 12:40:42;;;;;;;21.92;10.63;;;1.10;99.90;;;;;;5012177;28;20090;-67
2022/12/10 12:43:36;;;;;;;23.17;11.25;;;1.20;99.90;;;;;;5048606;28;20033;-66
2022/12/10 12:46:09;;;;;;;23.60;11.90;;;1.20;99.90;;;;;;5048161;28;20029;-67
2022/12/10 12:48:39;;;;;;;25.23;11.88;;;1.20;99.90;;;;;;5046726;28;20079;-66
2022/12/10 12:51:10;;;;;;;30.58;12.88;;;1.10;99.90;;;;;;5047127;28;20620;-65
2022/12/10 12:53:36;;;;;;;35.65;15.65;;;1.00;99.90;;;;;;5045029;28;20025;-67
2022/12/10 12:56:23;;;;;;;33.58;14.15;;;1.10;99.90;;;;;;5036187;28;20033;-66
2022/12/10 12:59:09;;;;;;;25.45;11.52;;;1.10;99.90;;;;;;5041374;28;20418;-64
2022/12/10 13:01:43;;;;;;;29.70;12.63;;;1.20;99.90;;;;;;5031136;28;20120;-66